Chesterfield, Canada
Current Conditions -  °F | °C
As of 8:00 AM on Sunday 23 Nov 2014 (Local Time) from CYRT Reporting Station
Ice Pellets Ice Pellets  
Wind Chill: -49°   Ceiling: Unl
Heat Index: -22°   Visibility: 15mi
Dew Point: -29°   Wind: 17mph
Humidity: 69%   Direction: 310°NW
Pressure: 29.72"   Gusts: NA
Location:  63.33°N, 90.7°W
Report Text: CYRT 231400Z 31015KT 15SM IC SKC M30/M34 A2972 RMK SLP070
Loading
Personal Weather Stations






























Interactive Weather Map New forecast layout! Learn more

10-Day Weather Forecast

Advertisements
Track Severe Weather on mobile